Time;durP1;ratioP1;P1;durP2;ratioP2;P2;SDS_P1;SDS_P2;PMS_P1;PMS_P2;Temp;Humidity;BMP_temperature;BMP_pressure;BME280_temperature;BME280_humidity;BME280_pressure;Samples;Min_cycle;Max_cycle;Signal;HPM_P1;HPM_P2
2021/10/25 00:01:34;;;;;;;46.73;25.37;;;;;;;2.80;82.56;102088.53;1758698;81;25286;-79
2021/10/25 00:04:02;;;;;;;43.87;26.42;;;;;;;2.77;82.37;102094.05;1726620;81;27454;-80
2021/10/25 00:06:29;;;;;;;40.45;24.95;;;;;;;2.74;82.57;102087.61;1704618;80;25828;-80
2021/10/25 00:08:56;;;;;;;42.30;24.98;;;;;;;2.74;82.48;102090.73;1713646;80;25753;-80
2021/10/25 00:11:23;;;;;;;38.48;23.67;;;;;;;2.71;82.38;102083.87;1738277;80;25790;-79
2021/10/25 00:13:50;;;;;;;45.15;23.35;;;;;;;2.67;82.30;102078.88;1717449;80;26159;-80
2021/10/25 00:16:17;;;;;;;44.18;24.50;;;;;;;2.64;82.21;102083.02;1721792;81;27476;-80
2021/10/25 00:18:44;;;;;;;39.35;23.92;;;;;;;2.60;82.23;102082.86;1738056;80;25807;-80
2021/10/25 00:21:11;;;;;;;44.03;24.77;;;;;;;2.58;82.38;102082.11;1760647;80;26725;-80
2021/10/25 00:23:38;;;;;;;42.90;24.92;;;;;;;2.58;82.57;102072.38;1732782;80;26003;-80
2021/10/25 00:26:07;;;;;;;47.35;26.52;;;;;;;2.58;82.65;102072.84;1748598;80;25730;-80
2021/10/25 00:28:34;;;;;;;44.03;24.98;;;;;;;2.58;82.67;102074.17;1700040;81;28129;-80
2021/10/25 00:31:01;;;;;;;45.58;24.75;;;;;;;2.56;82.57;102066.81;1764430;80;25599;-80
2021/10/25 00:33:28;;;;;;;44.50;25.05;;;;;;;2.54;82.51;102072.67;1734374;80;25784;-80
2021/10/25 00:35:57;;;;;;;40.65;23.52;;;;;;;2.51;82.48;102065.78;1713823;81;26155;-80
2021/10/25 00:38:24;;;;;;;43.90;25.95;;;;;;;2.49;82.60;102062.39;1707419;81;25884;-80
2021/10/25 00:40:52;;;;;;;45.67;24.07;;;;;;;2.50;82.76;102065.89;1772395;80;28135;-79
2021/10/25 00:43:19;;;;;;;45.88;25.90;;;;;;;2.49;82.85;102059.75;1753947;80;25770;-80
2021/10/25 00:45:46;;;;;;;44.03;25.25;;;;;;;2.49;82.88;102055.78;1723757;80;25936;-80
2021/10/25 00:48:14;;;;;;;43.60;24.65;;;;;;;2.50;82.94;102059.28;1689644;81;26227;-80
2021/10/25 00:50:41;;;;;;;48.10;24.82;;;;;;;2.50;82.87;102059.28;1757488;80;25850;-80
2021/10/25 00:53:09;;;;;;;44.38;25.00;;;;;;;2.49;82.90;102041.23;1736647;80;27568;-80
2021/10/25 00:55:40;;;;;;;43.70;24.57;;;;;;;2.49;82.85;102046.99;1727138;81;25349;-80
2021/10/25 00:58:07;;;;;;;;;;;;;;;2.49;82.89;102047.84;1706750;82;26150;-80
2021/10/25 01:00:37;;;;;;;45.65;24.02;;;;;;;2.46;82.97;102043.24;1727274;82;25745;-80
2021/10/25 01:03:05;;;;;;;41.83;24.03;;;;;;;2.45;83.06;102041.53;1689235;81;25825;-80
2021/10/25 01:05:32;;;;;;;50.38;25.12;;;;;;;2.44;83.03;102034.06;1632422;82;27514;-80
2021/10/25 01:08:02;;;;;;;43.20;25.05;;;;;;;2.47;83.13;102043.60;1729253;81;25822;-80
2021/10/25 01:10:30;;;;;;;41.45;24.67;;;;;;;2.47;83.08;102042.28;1747109;80;25793;-80
2021/10/25 01:12:58;;;;;;;43.45;24.25;;;;;;;2.47;83.15;102040.48;1689997;81;26229;-80
2021/10/25 01:15:27;;;;;;;46.95;23.85;;;;;;;2.49;83.16;102039.06;1683106;81;25800;-80
2021/10/25 01:17:59;;;;;;;42.17;25.02;;;;;;;2.47;83.08;102035.67;1731544;81;27621;-80
2021/10/25 01:20:29;;;;;;;43.55;24.18;;;;;;;2.47;83.10;102028.59;1740325;81;25740;-81
2021/10/25 01:22:57;;;;;;;43.17;26.10;;;;;;;2.47;83.17;102023.77;1709536;81;25894;-80
2021/10/25 01:25:25;;;;;;;44.53;24.02;;;;;;;2.47;83.30;102022.45;1707193;81;26240;-80
2021/10/25 01:27:55;;;;;;;42.38;24.47;;;;;;;2.49;83.46;102028.48;1689363;81;25814;-80
2021/10/25 01:30:22;;;;;;;43.30;24.57;;;;;;;2.49;83.39;102020.08;1691964;81;27482;-80
2021/10/25 01:32:51;;;;;;;43.20;23.77;;;;;;;2.46;83.38;102016.30;1688384;82;25875;-80
2021/10/25 01:35:18;;;;;;;42.17;23.30;;;;;;;2.47;83.35;102022.45;1711653;81;25705;-80
2021/10/25 01:37:45;;;;;;;47.67;24.05;;;;;;;2.44;83.28;102015.55;1675909;81;25951;-80
2021/10/25 01:40:14;;;;;;;44.25;24.87;;;;;;;2.44;83.32;102010.27;1689773;81;25856;-81
2021/10/25 01:42:42;;;;;;;46.73;24.75;;;;;;;2.45;83.36;102004.05;1738517;81;28585;-80
2021/10/25 01:45:11;;;;;;;42.93;23.98;;;;;;;2.45;83.37;101995.25;1709497;81;25825;-80
2021/10/25 01:47:38;;;;;;;42.80;23.85;;;;;;;2.46;83.46;101999.61;1741493;81;25901;-80
2021/10/25 01:50:07;;;;;;;46.13;24.63;;;;;;;2.45;83.38;101996.11;1667851;82;25924;-79
2021/10/25 01:52:34;;;;;;;46.00;24.98;;;;;;;2.45;83.49;101991.28;1731807;81;25848;-80
2021/10/25 01:55:03;;;;;;;45.92;23.25;;;;;;;2.44;83.53;101980.35;1733710;81;27593;-80
2021/10/25 01:57:30;;;;;;;41.45;22.50;;;;;;;2.44;83.52;101984.31;1671928;83;25920;-80
2021/10/25 01:59:58;;;;;;;44.77;24.65;;;;;;;2.43;83.53;101984.78;1648969;81;25710;-80
2021/10/25 02:02:27;;;;;;;49.55;25.17;;;;;;;2.43;83.60;101984.78;1734648;81;25816;-80
2021/10/25 02:04:54;;;;;;;47.58;25.77;;;;;;;2.37;83.67;101977.27;1714703;81;25854;-80
2021/10/25 02:07:21;;;;;;;42.03;24.60;;;;;;;2.35;83.71;101973.88;1707851;81;27558;-80
2021/10/25 02:09:49;;;;;;;46.58;23.98;;;;;;;2.35;83.72;101975.20;1648757;81;25895;-80
2021/10/25 02:12:16;;;;;;;39.20;22.62;;;;;;;2.33;83.83;101971.80;1711242;81;25375;-80
2021/10/25 02:14:44;;;;;;;44.88;25.52;;;;;;;2.32;83.73;101966.13;1736990;81;25985;-80
2021/10/25 02:17:11;;;;;;;43.02;24.57;;;;;;;2.32;83.84;101966.13;1707841;81;26383;-79
2021/10/25 02:19:41;;;;;;;45.60;25.27;;;;;;;2.31;83.94;101958.66;1650211;81;27396;-79
2021/10/25 02:22:10;;;;;;;42.53;25.15;;;;;;;2.31;83.95;101959.13;1734566;81;25933;-80
2021/10/25 02:24:37;;;;;;;44.38;25.57;;;;;;;2.29;83.92;101958.38;1738524;81;25717;-80
2021/10/25 02:27:04;;;;;;;47.27;25.20;;;;;;;2.30;84.03;101962.73;1701994;82;26693;-80
2021/10/25 02:29:35;;;;;;;46.13;25.60;;;;;;;2.31;84.09;101962.63;1661806;81;26096;-80
2021/10/25 02:32:08;;;;;;;43.15;23.62;;;;;;;2.31;83.98;101961.77;1691976;81;27451;-80
2021/10/25 02:34:36;;;;;;;45.67;25.30;;;;;;;2.30;84.01;101963.59;1738128;81;25830;-80
2021/10/25 02:37:04;;;;;;;42.65;22.65;;;;;;;2.29;83.87;101959.70;1710282;82;26652;-80
2021/10/25 02:39:31;;;;;;;38.73;24.50;;;;;;;2.29;83.93;101956.59;1646189;82;26211;-80
2021/10/25 02:41:58;;;;;;;42.33;23.77;;;;;;;2.28;83.74;101950.95;1739697;81;25727;-80
2021/10/25 02:44:26;;;;;;;40.92;23.85;;;;;;;2.27;83.70;101949.24;1737281;81;27503;-80
2021/10/25 02:46:54;;;;;;;40.95;23.50;;;;;;;2.28;83.68;101948.78;1704354;81;25899;-81
2021/10/25 02:49:23;;;;;;;44.77;24.77;;;;;;;2.26;83.66;101942.75;1660912;82;25908;-80
2021/10/25 02:51:50;;;;;;;42.67;24.45;;;;;;;2.25;83.61;101945.00;1742943;81;25905;-80
2021/10/25 02:54:18;;;;;;;41.58;24.20;;;;;;;2.24;83.63;101942.86;1738744;81;25737;-80
2021/10/25 02:56:47;;;;;;;48.40;24.85;;;;;;;2.24;83.74;101944.64;1710884;81;28303;-80
2021/10/25 02:59:14;;;;;;;43.98;24.25;;;;;;;2.22;83.72;101943.40;1660864;81;25826;-80
2021/10/25 03:01:42;;;;;;;44.58;24.05;;;;;;;2.24;83.83;101942.86;1740650;81;25822;-80
2021/10/25 03:04:11;;;;;;;44.45;24.92;;;;;;;2.23;83.77;101941.14;1762404;80;25835;-80
2021/10/25 03:06:39;;;;;;;44.53;25.00;;;;;;;2.22;83.79;101939.93;1738620;81;25874;-80
2021/10/25 03:09:08;;;;;;;42.13;25.50;;;;;;;2.21;83.73;101932.94;1714506;80;28361;-80
2021/10/25 03:11:36;;;;;;;43.17;23.90;;;;;;;2.19;83.76;101930.41;1761558;81;25787;-80
2021/10/25 03:14:04;;;;;;;44.35;24.40;;;;;;;2.20;83.79;101935.22;1757584;81;26091;-80
2021/10/25 03:16:33;;;;;;;43.35;24.02;;;;;;;2.17;83.71;101936.73;1735151;80;25849;-80
2021/10/25 03:19:00;;;;;;;46.05;25.02;;;;;;;2.15;83.78;101938.16;1709008;81;25380;-80
2021/10/25 03:21:27;;;;;;;47.10;26.60;;;;;;;2.16;83.90;101935.05;1732737;81;27483;-79
2021/10/25 03:23:58;;;;;;;45.35;24.43;;;;;;;2.15;83.89;101928.91;1765581;80;26517;-79
2021/10/25 03:26:25;;;;;;;44.75;25.05;;;;;;;2.14;83.93;101937.77;1711040;81;25860;-80
2021/10/25 03:28:53;;;;;;;39.15;23.98;;;;;;;2.15;83.91;101934.66;1710464;81;25924;-80
2021/10/25 03:31:22;;;;;;;41.02;23.92;;;;;;;2.14;83.93;101932.48;1765961;81;25868;-80
2021/10/25 03:33:50;;;;;;;42.23;22.58;;;;;;;2.13;83.81;101935.23;1760615;81;27456;-80
2021/10/25 03:36:26;;;;;;;39.35;22.58;;;;;;;2.10;83.89;101932.31;1706317;81;25889;-80
2021/10/25 03:38:51;;;;;;;45.67;23.22;;;;;;;2.10;83.86;101932.78;1707197;81;25841;-80
2021/10/25 03:41:23;;;;;;;41.50;23.57;;;;;;;2.07;83.86;101929.89;1743097;80;25854;-80
2021/10/25 03:43:56;;;;;;;44.13;24.07;;;;;;;2.06;83.84;101933.47;1764246;81;25804;-80
2021/10/25 03:46:36;;;;;;;40.78;24.23;;;;;;;2.05;83.74;101926.47;1730670;81;27559;-80
2021/10/25 03:49:05;;;;;;;37.80;23.38;;;;;;;2.02;83.64;101919.23;1718206;80;25943;-80
2021/10/25 03:51:24;;;;;;;44.25;25.75;;;;;;;2.00;83.62;101919.34;1733063;82;25724;-80
2021/10/25 03:54:04;;;;;;;42.62;24.70;;;;;;;1.99;83.64;101916.31;1782492;80;25580;-80
2021/10/25 03:59:25;;;;;;;42.05;25.75;;;;;;;1.94;83.69;101913.61;1752718;80;27701;-79
2021/10/25 04:13:19;;;;;;;46.33;25.57;;;;;;;1.91;84.07;101892.19;1744939;80;28443;-82
2021/10/25 04:26:37;;;;;;;51.58;28.40;;;;;;;1.80;84.25;101876.64;1734073;81;27529;-82
2021/10/25 04:28:55;;;;;;;55.10;28.80;;;;;;;1.77;84.34;101876.40;1742820;80;26516;-82
2021/10/25 04:31:22;;;;;;;53.95;27.17;;;;;;;1.78;84.40;101866.66;1761777;81;25810;-82
2021/10/25 04:33:57;;;;;;;54.25;29.23;;;;;;;1.76;84.42;101861.95;1735059;80;26012;-82
2021/10/25 04:36:36;;;;;;;62.62;33.35;;;;;;;1.75;84.44;101860.27;1746974;80;25868;-82
2021/10/25 04:39:09;;;;;;;52.03;29.95;;;;;;;1.76;84.36;101857.98;1720939;80;28396;-82
2021/10/25 04:41:34;;;;;;;48.08;28.00;;;;;;;1.74;84.33;101859.41;1776900;80;25727;-82
2021/10/25 04:44:01;;;;;;;66.95;36.40;;;;;;;1.73;84.35;101859.06;1735064;81;25939;-82
2021/10/25 04:46:28;;;;;;;69.87;38.83;;;;;;;1.72;84.41;101854.70;1729994;81;25486;-82
2021/10/25 04:48:55;;;;;;;60.60;36.10;;;;;;;1.72;84.45;101852.06;1727823;81;25386;-81
2021/10/25 04:51:24;;;;;;;66.47;37.33;;;;;;;1.71;84.55;101852.17;1762530;81;28436;-82
2021/10/25 04:53:57;;;;;;;66.33;37.60;;;;;;;1.68;84.58;101850.58;1725619;81;26056;-83
2021/10/25 04:56:25;;;;;;;59.38;34.00;;;;;;;1.66;84.63;101845.87;1716250;81;25315;-83
2021/10/25 04:58:53;;;;;;;64.75;32.95;;;;;;;1.66;84.72;101847.66;1723509;81;26304;-82
2021/10/25 05:01:20;;;;;;;54.67;30.45;;;;;;;1.67;84.75;101850.69;1725196;80;25891;-82
2021/10/25 05:03:47;;;;;;;54.73;32.20;;;;;;;1.68;84.73;101849.72;1710820;83;26724;-82
2021/10/25 05:06:19;;;;;;;56.18;31.80;;;;;;;1.67;84.65;101846.22;1689954;81;25905;-82
2021/10/25 05:08:48;;;;;;;54.13;30.80;;;;;;;1.68;84.67;101842.66;1735378;81;26135;-82
2021/10/25 05:11:16;;;;;;;53.70;31.62;;;;;;;1.69;84.66;101847.47;1755567;81;26190;-83
2021/10/25 05:13:43;;;;;;;62.88;32.35;;;;;;;1.70;84.61;101847.83;1705849;81;25907;-82
2021/10/25 05:16:10;;;;;;;57.58;33.65;;;;;;;1.70;84.45;101840.76;1704671;81;27627;-83
2021/10/25 05:18:39;;;;;;;54.83;32.00;;;;;;;1.69;84.37;101844.83;1724272;81;25844;-82
2021/10/25 05:21:06;;;;;;;57.38;32.60;;;;;;;1.69;84.36;101844.33;1740659;80;25893;-82
2021/10/25 05:23:33;;;;;;;56.35;32.98;;;;;;;1.69;84.26;101835.59;1743219;80;25874;-82
2021/10/25 05:26:01;;;;;;;63.38;36.70;;;;;;;1.68;84.27;101831.23;1690837;80;26054;-83
2021/10/25 05:28:28;;;;;;;61.08;35.92;;;;;;;1.67;84.26;101834.34;1724247;81;27621;-82
2021/10/25 05:30:55;;;;;;;57.38;35.03;;;;;;;1.69;84.30;101835.59;1756107;81;25917;-83
2021/10/25 05:33:24;;;;;;;60.23;35.35;;;;;;;1.69;84.26;101831.13;1725857;81;25827;-82
2021/10/25 05:35:53;;;;;;;68.15;39.18;;;;;;;1.70;84.25;101837.27;1721529;81;25827;-81
2021/10/25 05:38:21;;;;;;;63.13;35.55;;;;;;;1.69;84.20;101835.09;1734395;80;25912;-82
2021/10/25 05:40:48;;;;;;;57.78;33.65;;;;;;;1.69;84.22;101828.48;1756912;80;28286;-82
2021/10/25 05:43:15;;;;;;;66.17;35.25;;;;;;;1.72;84.29;101836.22;1696309;80;26661;-81
2021/10/25 05:45:42;;;;;;;59.65;34.13;;;;;;;1.71;84.23;101829.23;1743809;80;25848;-82
2021/10/25 05:48:10;;;;;;;57.95;34.43;;;;;;;1.71;84.31;101825.27;1722661;82;25919;-82
2021/10/25 05:50:37;;;;;;;60.85;32.88;;;;;;;1.72;84.37;101822.16;1774626;80;25729;-81
2021/10/25 05:53:06;;;;;;;57.33;31.77;;;;;;;1.71;84.39;101817.34;1720737;80;27513;-82
2021/10/25 05:55:34;;;;;;;60.00;34.27;;;;;;;1.72;84.58;101815.55;1730167;81;25838;-82
2021/10/25 05:58:01;;;;;;;59.80;32.85;;;;;;;1.72;84.74;101809.81;1727356;81;25956;-82
2021/10/25 06:00:32;;;;;;;56.77;30.23;;;;;;;1.72;84.78;101807.63;1755081;81;25810;-82
2021/10/25 06:02:58;;;;;;;60.63;31.77;;;;;;;1.72;84.96;101812.91;1724362;81;25338;-82
2021/10/25 06:05:30;;;;;;;60.78;32.05;;;;;;;1.72;85.13;101809.81;1706719;80;27634;-82
2021/10/25 06:07:58;;;;;;;57.23;31.55;;;;;;;1.72;85.31;101813.77;1745927;80;26595;-82
2021/10/25 06:10:32;;;;;;;58.65;32.60;;;;;;;1.72;85.30;101809.81;1774392;80;25825;-82
2021/10/25 06:12:59;;;;;;;56.77;29.65;;;;;;;1.73;85.49;101821.23;1714841;81;26432;-82
2021/10/25 06:15:41;;;;;;;56.80;33.25;;;;;;;1.73;85.50;101808.02;1695865;82;25880;-82
2021/10/25 06:18:08;;;;;;;58.00;32.73;;;;;;;1.75;85.75;101813.58;1721733;80;27626;-82
2021/10/25 06:20:38;;;;;;;65.42;34.23;;;;;;;1.79;85.96;101813.75;1727769;81;25887;-83
2021/10/25 06:23:10;;;;;;;63.48;35.60;;;;;;;1.81;85.99;101813.17;1721888;81;25872;-82
2021/10/25 06:25:40;;;;;;;58.83;33.08;;;;;;;1.85;86.15;101812.02;1734764;80;25508;-82
2021/10/25 06:28:10;;;;;;;62.53;32.38;;;;;;;1.86;86.11;101812.87;1730709;81;26389;-81
2021/10/25 06:30:39;;;;;;;67.50;34.03;;;;;;;1.88;86.24;101814.94;1748172;81;27596;-82
2021/10/25 06:33:07;;;;;;;67.12;34.05;;;;;;;1.92;86.45;101810.67;1732951;81;25556;-82
2021/10/25 06:35:43;;;;;;;64.25;33.00;;;;;;;1.94;86.48;101810.09;1716069;81;25827;-82
2021/10/25 06:38:32;;;;;;;58.28;32.73;;;;;;;1.97;86.60;101801.94;1718703;81;25765;-83
2021/10/25 06:41:01;;;;;;;64.15;32.98;;;;;;;2.02;86.79;101809.56;1759179;81;25838;-82
2021/10/25 06:43:29;;;;;;;67.58;34.73;;;;;;;2.01;86.78;101802.11;1722397;81;27416;-82
2021/10/25 06:45:57;;;;;;;60.58;33.23;;;;;;;2.04;87.00;101802.38;1727522;82;25866;-83
2021/10/25 06:48:24;;;;;;;70.65;35.40;;;;;;;2.07;87.00;101799.55;1726514;81;25766;-82
2021/10/25 06:50:53;;;;;;;60.28;31.45;;;;;;;2.10;87.11;101801.96;1747835;81;26391;-82
2021/10/25 06:53:20;;;;;;;60.83;32.17;;;;;;;2.15;87.23;101804.69;1728089;80;25861;-82
2021/10/25 06:56:05;;;;;;;64.70;33.67;;;;;;;2.19;87.24;101802.67;1748867;80;45985;-82
2021/10/25 06:58:32;;;;;;;64.50;34.35;;;;;;;2.23;87.32;101798.86;1727749;80;25764;-82
2021/10/25 07:01:01;;;;;;;64.25;31.48;;;;;;;2.26;87.26;101799.52;1737135;81;26549;-83
2021/10/25 07:03:29;;;;;;;57.73;30.90;;;;;;;2.30;87.42;101803.65;1760371;81;25972;-83
2021/10/25 07:06:00;;;;;;;59.08;30.95;;;;;;;2.34;87.39;101802.48;1737912;80;25895;-83
2021/10/25 07:08:27;;;;;;;61.88;31.80;;;;;;;2.40;87.45;101802.53;1718206;81;27566;-82
2021/10/25 07:10:54;;;;;;;56.13;30.72;;;;;;;2.47;87.54;101809.56;1751984;80;26690;-82
2021/10/25 07:13:22;;;;;;;63.83;32.13;;;;;;;2.51;87.56;101805.28;1744159;81;25862;-82
2021/10/25 07:15:58;;;;;;;59.05;32.80;;;;;;;2.56;87.68;101813.76;1735202;81;25822;-82
2021/10/25 07:18:31;;;;;;;61.53;33.10;;;;;;;2.63;87.76;101812.86;1707348;81;25812;-83
2021/10/25 07:21:23;;;;;;;56.65;32.23;;;;;;;2.66;87.79;101805.55;1734024;81;27577;-83
2021/10/25 07:23:52;;;;;;;60.10;31.87;;;;;;;2.71;87.82;101801.27;1749977;81;26337;-82
2021/10/25 08:07:31;;;;;;;59.53;31.10;;;;;;;4.11;89.34;101782.05;1733538;81;25932;-82
2021/10/25 08:10:03;;;;;;;53.52;30.85;;;;;;;4.20;89.29;101782.22;1691689;81;26198;-82
2021/10/25 08:12:30;;;;;;;53.40;31.23;;;;;;;4.29;89.23;101776.69;1723711;81;25923;-83
2021/10/25 08:15:00;;;;;;;51.80;28.23;;;;;;;4.40;89.43;101779.36;1753337;81;27390;-83
2021/10/25 08:17:40;;;;;;;49.03;27.22;;;;;;;4.52;89.37;101774.42;1738423;81;25987;-82
2021/10/25 08:19:55;;;;;;;45.10;25.60;;;;;;;4.62;89.42;101769.61;1695872;80;26117;-82
2021/10/25 08:22:22;;;;;;;48.08;26.95;;;;;;;4.75;89.45;101768.66;1711858;80;25818;-83
2021/10/25 08:24:52;;;;;;;49.10;27.90;;;;;;;4.86;89.36;101761.99;1775764;80;25785;-82
2021/10/25 08:27:21;;;;;;;43.42;24.75;;;;;;;4.95;89.58;101760.80;1719652;81;28282;-83
2021/10/25 08:29:49;;;;;;;48.45;25.45;;;;;;;5.08;89.31;101754.87;1722582;82;26477;-84
2021/10/25 08:40:45;;;;;;;37.58;21.80;;;;;;;5.58;89.59;101757.88;1719408;81;27498;-83
2021/10/25 08:43:13;;;;;;;35.33;21.70;;;;;;;5.69;89.42;101753.34;1704167;81;25893;-83
2021/10/25 08:45:46;;;;;;;31.45;19.73;;;;;;;5.82;89.40;101755.81;1753348;81;25809;-82
2021/10/25 08:48:11;;;;;;;34.20;18.52;;;;;;;5.95;89.37;101756.52;1730218;81;26232;-83
2021/10/25 08:50:38;;;;;;;24.10;14.28;;;;;;;6.07;89.43;101755.50;1711561;81;25871;-83
2021/10/25 08:53:09;;;;;;;26.95;14.28;;;;;;;6.19;88.98;101753.97;1714857;81;27551;-82
2021/10/25 08:55:38;;;;;;;25.32;14.30;;;;;;;6.31;88.57;101745.41;1758251;81;25928;-82
2021/10/25 08:58:06;;;;;;;26.40;12.43;;;;;;;6.42;88.18;101741.83;1714957;80;25810;-82
2021/10/25 09:00:45;;;;;;;21.20;12.53;;;;;;;6.52;87.99;101734.75;1707650;82;25845;-82
2021/10/25 09:03:23;;;;;;;25.97;11.67;;;;;;;6.63;87.92;101733.34;1671853;82;25915;-83
2021/10/25 09:05:58;;;;;;;22.05;11.63;;;;;;;6.75;87.42;101735.77;1753269;80;27538;-83
2021/10/25 09:08:28;;;;;;;20.90;12.75;;;;;;;6.86;87.06;101722.33;1732715;81;25973;-83
2021/10/25 09:10:56;;;;;;;23.45;11.05;;;;;;;6.97;86.64;101724.06;1739692;80;25858;-83
2021/10/25 09:13:27;;;;;;;19.57;11.40;;;;;;;7.06;86.37;101722.41;1715209;82;26593;-83
2021/10/25 09:15:58;;;;;;;18.12;9.80;;;;;;;7.16;86.07;101721.93;1755035;81;25812;-83
2021/10/25 09:18:33;;;;;;;18.57;10.15;;;;;;;7.27;86.11;101722.63;1667800;81;27669;-84
2021/10/25 09:21:07;;;;;;;17.80;10.15;;;;;;;7.37;85.30;101720.84;1696713;81;25988;-83
2021/10/25 09:23:47;;;;;;;18.73;10.70;;;;;;;7.45;85.27;101715.65;1716407;80;25898;-82
2021/10/25 09:26:19;;;;;;;21.07;10.25;;;;;;;7.56;85.12;101715.52;1766201;80;25898;-82
2021/10/25 09:28:52;;;;;;;21.48;10.45;;;;;;;7.69;85.03;101721.90;1762805;80;25770;-82
2021/10/25 09:31:25;;;;;;;18.17;9.73;;;;;;;7.78;84.94;101713.88;1733849;80;27493;-83
2021/10/25 09:34:04;;;;;;;18.73;9.68;;;;;;;7.87;84.29;101713.52;1721734;80;25927;-83
2021/10/25 09:36:52;;;;;;;15.90;9.75;;;;;;;7.95;83.77;101715.01;1712900;82;25863;-83
2021/10/25 09:39:39;;;;;;;19.57;9.38;;;;;;;8.03;83.00;101710.27;1757755;80;25857;-83
2021/10/25 09:50:12;;;;;;;19.62;10.18;;;;;;;8.35;81.96;101689.44;1737999;81;25863;-82
2021/10/25 09:52:43;;;;;;;21.85;11.00;;;;;;;8.44;81.94;101676.55;1732315;81;25548;-83
2021/10/25 09:55:19;;;;;;;17.70;9.65;;;;;;;8.52;81.73;101678.83;1730013;81;25743;-82
2021/10/25 09:57:58;;;;;;;16.87;8.95;;;;;;;8.63;81.37;101675.61;1761982;80;28483;-83
2021/10/25 10:00:33;;;;;;;15.28;8.98;;;;;;;8.73;80.96;101677.25;1726492;81;25862;-83
2021/10/25 10:03:02;;;;;;;16.23;9.53;;;;;;;8.80;80.14;101677.00;1697388;81;25748;-82
2021/10/25 10:05:41;;;;;;;18.37;10.00;;;;;;;8.87;80.14;101678.10;1588463;87;26377;-83
2021/10/25 10:08:11;;;;;;;16.02;9.45;;;;;;;8.94;79.43;101668.99;1746538;81;25949;-83
2021/10/25 10:10:39;;;;;;;16.57;9.28;;;;;;;9.01;79.01;101669.56;1771827;80;28296;-83
2021/10/25 10:13:12;;;;;;;18.32;9.53;;;;;;;9.06;78.49;101657.09;1710784;82;25550;-83
2021/10/25 10:15:43;;;;;;;21.35;9.10;;;;;;;9.13;78.42;101659.51;1712614;82;26278;-82
2021/10/25 10:18:22;;;;;;;15.60;9.20;;;;;;;9.19;78.45;101653.55;1758456;81;25628;-83
2021/10/25 10:21:09;;;;;;;16.02;8.50;;;;;;;9.27;78.22;101652.28;1643205;85;25887;-83
2021/10/25 10:23:38;;;;;;;18.30;8.23;;;;;;;9.34;77.87;101656.04;1674891;82;27618;-82
2021/10/25 10:26:13;;;;;;;14.33;8.15;;;;;;;9.42;77.34;101648.57;1705302;81;25817;-83
2021/10/25 10:28:49;;;;;;;13.60;7.78;;;;;;;9.50;77.14;101641.95;1773219;80;26135;-83
2021/10/25 10:31:26;;;;;;;15.18;8.35;;;;;;;9.58;76.96;101642.86;1733582;81;26529;-84
2021/10/25 10:34:00;;;;;;;11.85;8.20;;;;;;;9.65;76.78;101633.71;1734172;80;25922;-82
2021/10/25 10:36:33;;;;;;;17.60;8.13;;;;;;;9.75;76.77;101628.61;1718146;80;27494;-84
2021/10/25 10:39:15;;;;;;;15.60;8.43;;;;;;;9.83;75.96;101627.84;1738660;81;25864;-84
2021/10/25 10:42:05;;;;;;;17.25;7.60;;;;;;;9.87;76.20;101618.50;1751402;80;25843;-83
2021/10/25 10:44:58;;;;;;;18.25;9.13;;;;;;;9.95;76.27;101623.89;1720749;81;25971;-83
2021/10/25 10:47:23;;;;;;;14.75;7.83;;;;;;;10.00;76.24;101620.26;1710710;82;25869;-83
2021/10/25 10:49:59;;;;;;;14.90;8.03;;;;;;;10.07;76.38;101616.77;1758892;79;27444;-83
2021/10/25 10:52:33;;;;;;;15.13;7.85;;;;;;;10.14;75.06;101612.19;1747647;80;26680;-83
2021/10/25 10:55:10;;;;;;;16.82;9.20;;;;;;;10.20;75.20;101613.69;1769198;80;25845;-83
2021/10/25 11:00:39;;;;;;;32.73;8.88;;;;;;;10.30;74.89;101602.87;1762345;80;25254;-83
2021/10/25 11:03:26;;;;;;;18.60;7.50;;;;;;;10.34;73.97;101598.38;1702758;81;27256;-83
2021/10/25 11:06:16;;;;;;;14.23;8.28;;;;;;;10.42;74.16;101595.73;1716297;81;25941;-83
2021/10/25 11:08:40;;;;;;;14.60;8.33;;;;;;;10.48;74.17;101596.91;1710275;82;25773;-83
2021/10/25 11:11:14;;;;;;;20.25;8.08;;;;;;;10.56;74.39;101587.59;1745799;81;25850;-84
2021/10/25 11:13:56;;;;;;;32.70;8.85;;;;;;;10.62;73.80;101587.78;1758625;80;25951;-83
2021/10/25 11:19:10;;;;;;;12.65;6.72;;;;;;;10.73;72.33;101578.06;1740326;80;25869;-83
2021/10/25 11:21:43;;;;;;;12.90;6.78;;;;;;;10.79;72.58;101573.41;1775094;80;25713;-84
2021/10/25 11:24:15;;;;;;;12.53;6.85;;;;;;;10.82;72.20;101566.36;1750465;81;25826;-83
2021/10/25 11:26:57;;;;;;;12.15;5.70;;;;;;;10.88;72.20;101560.87;1710254;83;26567;-83
2021/10/25 11:29:33;;;;;;;12.70;6.60;;;;;;;10.94;71.96;101552.16;1717171;80;28195;-82
2021/10/25 11:32:05;;;;;;;12.70;8.13;;;;;;;11.02;71.77;101544.11;1711813;83;25871;-83
2021/10/25 11:34:44;;;;;;;11.65;6.78;;;;;;;11.09;71.16;101538.92;1722195;80;25853;-84
2021/10/25 11:37:17;;;;;;;12.90;6.90;;;;;;;11.12;71.09;101538.08;1774474;80;26544;-83
2021/10/25 11:39:55;;;;;;;11.90;7.15;;;;;;;11.16;70.01;101539.41;1784783;80;25843;-83
2021/10/25 11:42:27;;;;;;;11.80;6.97;;;;;;;11.20;69.02;101538.59;1682176;81;28437;-83
2021/10/25 11:44:59;;;;;;;13.18;6.95;;;;;;;11.24;69.58;101526.03;1754334;81;25817;-82
2021/10/25 11:47:33;;;;;;;16.12;7.17;;;;;;;11.28;69.10;101518.47;1749571;80;26595;-83
2021/10/25 11:50:17;;;;;;;11.85;6.30;;;;;;;11.35;68.81;101519.48;1744560;81;25817;-83
2021/10/25 11:53:00;;;;;;;11.93;6.50;;;;;;;11.38;68.46;101519.97;1701245;80;25767;-83
2021/10/25 11:55:33;;;;;;;11.03;6.05;;;;;;;11.41;68.06;101516.11;1752264;80;28413;-83
2021/10/25 11:58:12;;;;;;;12.43;6.65;;;;;;;11.44;67.66;101507.73;1716097;81;25812;-84
2021/10/25 12:00:44;;;;;;;14.35;7.22;;;;;;;11.48;66.92;101519.27;1748056;81;25793;-83
2021/10/25 12:03:21;;;;;;;10.85;5.95;;;;;;;11.52;66.64;101511.74;1711066;82;25991;-83
2021/10/25 12:05:48;;;;;;;10.48;6.35;;;;;;;11.56;66.71;101510.39;1690491;81;25788;-83
2021/10/25 12:08:19;;;;;;;11.18;6.20;;;;;;;11.57;66.52;101510.20;1734044;80;27444;-84
2021/10/25 12:10:49;;;;;;;9.05;6.45;;;;;;;11.60;65.96;101508.53;1709415;81;25758;-83
2021/10/25 12:13:17;;;;;;;11.22;6.80;;;;;;;11.64;66.06;101509.02;1677864;82;25929;-83
2021/10/25 12:16:07;;;;;;;19.82;7.53;;;;;;;11.70;65.41;101502.99;1673655;82;25869;-83
2021/10/25 12:18:25;;;;;;;18.15;7.50;;;;;;;11.75;65.31;101497.95;1722516;82;26499;-82
2021/10/25 12:20:52;;;;;;;11.65;6.72;;;;;;;11.80;64.92;101500.12;1743055;81;27419;-83
2021/10/25 12:23:22;;;;;;;11.40;6.60;;;;;;;11.84;65.12;101492.91;1708255;82;26066;-83
2021/10/25 12:25:57;;;;;;;13.05;6.53;;;;;;;11.88;65.24;101493.38;1667877;82;25893;-83
2021/10/25 12:28:24;;;;;;;12.03;6.37;;;;;;;11.90;65.19;101494.89;1735141;82;26428;-82
2021/10/25 12:31:14;;;;;;;11.90;5.72;;;;;;;11.93;64.66;101493.18;1726608;82;25817;-83
2021/10/25 12:33:45;;;;;;;11.85;7.17;;;;;;;11.97;65.20;101477.58;1682440;82;27581;-83
2021/10/25 12:36:18;;;;;;;10.57;6.33;;;;;;;11.99;64.71;101483.61;1686023;82;26876;-84
2021/10/25 12:38:52;;;;;;;7.97;5.03;;;;;;;12.00;64.27;101485.27;1688455;82;26532;-83
2021/10/25 12:41:19;;;;;;;11.00;6.62;;;;;;;12.03;64.77;101483.09;1735313;82;26257;-83
2021/10/25 12:43:54;;;;;;;10.93;6.15;;;;;;;12.02;64.10;101482.74;1703841;82;25378;-83
2021/10/25 12:46:22;;;;;;;11.73;6.10;;;;;;;12.05;63.95;101489.12;1704464;82;27614;-83
2021/10/25 12:48:55;;;;;;;11.05;6.60;;;;;;;12.08;64.21;101488.75;1731072;82;25778;-83
2021/10/25 12:51:34;;;;;;;12.65;6.60;;;;;;;12.09;63.67;101480.20;1765219;80;25860;-82
2021/10/25 12:54:09;;;;;;;13.68;6.80;;;;;;;12.09;63.23;101485.57;1677357;82;25365;-83
2021/10/25 12:56:36;;;;;;;15.15;7.97;;;;;;;12.10;63.74;101477.86;1737583;81;26103;-82
2021/10/25 12:59:09;;;;;;;15.20;7.28;;;;;;;12.11;63.40;101472.80;1743565;81;27614;-83
2021/10/25 13:01:36;;;;;;;12.93;6.95;;;;;;;12.12;63.28;101469.97;1746940;81;26005;-83
2021/10/25 13:04:06;;;;;;;14.35;7.10;;;;;;;12.12;63.04;101470.47;1699172;81;25356;-83